createdAt,value
2017-03-05T00:00:23.709Z,90.66
2017-03-05T00:01:24.428Z,90.66
2017-03-05T00:02:25.162Z,90.94
2017-03-05T00:03:25.903Z,90.94
2017-03-05T00:04:26.652Z,90.94
2017-03-05T00:05:27.384Z,90.94
2017-03-05T00:06:28.120Z,90.75
2017-03-05T00:07:28.894Z,90.84
2017-03-05T00:08:29.621Z,90.94
2017-03-05T00:09:30.352Z,90.75
2017-03-05T00:10:31.074Z,90.75
2017-03-05T00:11:31.812Z,90.84
2017-03-05T00:12:32.556Z,91.13
2017-03-05T00:13:33.282Z,90.94
2017-03-05T00:14:34.000Z,90.66
2017-03-05T00:15:34.733Z,90.66
2017-03-05T00:16:35.471Z,90.94
2017-03-05T00:17:36.228Z,90.75
2017-03-05T00:18:36.968Z,90.84
2017-03-05T00:19:37.692Z,90.75
2017-03-05T00:20:38.386Z,90.84
2017-03-05T00:21:39.122Z,90.84
2017-03-05T00:22:39.842Z,90.84
2017-03-05T00:23:40.573Z,90.66
2017-03-05T00:24:41.331Z,90.94
2017-03-05T00:25:42.042Z,91.03
2017-03-05T00:26:42.759Z,91.03
2017-03-05T00:27:43.519Z,91.7
2017-03-05T00:28:44.252Z,91.61
2017-03-05T00:29:44.974Z,91.61
2017-03-05T00:30:45.710Z,91.51
2017-03-05T00:31:46.427Z,91.42
2017-03-05T00:32:47.162Z,91.51
2017-03-05T00:33:47.932Z,91.51
2017-03-05T00:34:48.649Z,91.7
2017-03-05T00:35:49.385Z,91.89
2017-03-05T00:36:50.115Z,91.8
2017-03-05T00:37:50.844Z,91.51
2017-03-05T00:38:51.585Z,91.51
2017-03-05T00:39:52.305Z,91.89
2017-03-05T00:40:53.054Z,91.51
2017-03-05T00:41:53.781Z,91.8
2017-03-05T00:42:54.537Z,91.51
2017-03-05T00:43:55.265Z,91.7
2017-03-05T00:44:56.001Z,91.32
2017-03-05T00:45:56.736Z,91.8
2017-03-05T00:46:57.481Z,91.61
2017-03-05T00:47:58.219Z,91.51
2017-03-05T00:48:58.955Z,91.42
2017-03-05T00:49:59.676Z,91.51
2017-03-05T00:51:00.399Z,91.42
2017-03-05T00:52:01.123Z,91.42
2017-03-05T00:53:01.866Z,91.51
2017-03-05T00:54:02.599Z,91.61
2017-03-05T00:55:03.384Z,91.7
2017-03-05T00:56:04.134Z,91.13
2017-03-05T00:57:04.873Z,91.22
2017-03-05T00:58:05.647Z,90.84
2017-03-05T00:59:06.375Z,91.03
2017-03-05T01:00:07.110Z,90.94
2017-03-05T01:01:07.892Z,91.03
2017-03-05T01:02:08.626Z,90.94
2017-03-05T01:03:09.367Z,91.13
2017-03-05T01:04:10.115Z,90.84
2017-03-05T01:05:10.876Z,90.94
2017-03-05T01:06:11.602Z,90.66
2017-03-05T01:07:12.328Z,90.56
2017-03-05T01:08:13.054Z,90.84
2017-03-05T01:09:13.804Z,90.56
2017-03-05T01:10:14.542Z,90.47
2017-03-05T01:11:15.279Z,90.28
2017-03-05T01:12:15.995Z,90.47
2017-03-05T01:13:16.739Z,90.28
2017-03-05T01:14:17.477Z,90.18
2017-03-05T01:15:18.212Z,90.08
2017-03-05T01:16:18.928Z,90.18
2017-03-05T01:17:19.654Z,90.08
2017-03-05T01:18:20.390Z,90.47
2017-03-05T01:19:21.121Z,90.08
2017-03-05T01:20:21.840Z,90.08
2017-03-05T01:21:22.582Z,90.28
2017-03-05T01:22:23.298Z,89.8
2017-03-05T01:23:24.040Z,89.99
2017-03-05T01:24:24.772Z,90.08
2017-03-05T01:25:25.504Z,89.99
2017-03-05T01:26:26.234Z,90.47
2017-03-05T01:27:26.967Z,90.56
2017-03-05T01:28:27.696Z,90.28
2017-03-05T01:29:28.426Z,90.37
2017-03-05T01:30:29.168Z,90.18
2017-03-05T01:31:29.899Z,90.47
2017-03-05T01:32:30.642Z,90.28
2017-03-05T01:33:31.377Z,90.47
2017-03-05T01:34:32.106Z,90.28
2017-03-05T01:35:32.835Z,90.08
2017-03-05T01:36:33.571Z,90.47
2017-03-05T01:37:34.299Z,90.56
2017-03-05T01:38:35.026Z,90.28
2017-03-05T01:39:35.778Z,90.37
2017-03-05T01:40:36.510Z,90.56
2017-03-05T01:41:37.260Z,90.66
2017-03-05T01:42:37.996Z,90.75
2017-03-05T01:43:38.744Z,90.94
2017-03-05T01:44:39.467Z,91.03
2017-03-05T01:45:40.205Z,90.94
2017-03-05T01:46:40.948Z,90.94
2017-03-05T01:47:41.696Z,90.8
2017-03-05T01:48:42.427Z,90.84
2017-03-05T01:49:43.162Z,90.66
2017-03-05T01:50:43.887Z,90.94
2017-03-05T01:51:44.627Z,90.75
2017-03-05T01:52:45.400Z,90.84
2017-03-05T01:53:46.142Z,90.66
2017-03-05T01:54:46.862Z,90.75
2017-03-05T01:55:47.593Z,90.75
2017-03-05T01:56:48.328Z,90.75
2017-03-05T01:57:49.087Z,90.66
2017-03-05T01:58:49.810Z,90.18
2017-03-05T01:59:50.559Z,90.37
2017-03-05T02:00:51.269Z,90.47
2017-03-05T02:01:51.995Z,90.66
2017-03-05T02:02:52.722Z,90.66
2017-03-05T02:03:53.463Z,90.75
2017-03-05T02:04:54.190Z,90.75
2017-03-05T02:05:54.924Z,91.56
2017-03-05T02:06:55.658Z,91.03
2017-03-05T02:07:56.396Z,91.13
2017-03-05T02:08:57.120Z,91.32
2017-03-05T02:09:57.894Z,91.47
2017-03-05T02:10:58.611Z,91.7
2017-03-05T02:11:59.364Z,91.32
2017-03-05T02:13:00.088Z,91.7
2017-03-05T02:14:00.891Z,91.8
2017-03-05T02:15:01.615Z,91.89
2017-03-05T02:16:02.339Z,91.51
2017-03-05T02:17:03.073Z,91.61
2017-03-05T02:18:03.789Z,91.51
2017-03-05T02:19:04.529Z,91.51
2017-03-05T02:20:05.248Z,91.8
2017-03-05T02:21:05.976Z,92.46
2017-03-05T02:22:06.715Z,92.36
2017-03-05T02:23:07.426Z,92.18
2017-03-05T02:24:08.156Z,92.94
2017-03-05T02:25:08.912Z,93.04
2017-03-05T02:26:09.650Z,93.79
2017-03-05T02:27:10.391Z,93.51
2017-03-05T02:28:11.113Z,93.32
2017-03-05T02:29:11.841Z,93.41
2017-03-05T02:30:12.571Z,94.18
2017-03-05T02:31:13.317Z,93.89
2017-03-05T02:32:14.064Z,93.89
2017-03-05T02:33:14.795Z,94.37
2017-03-05T02:34:15.504Z,93.98
2017-03-05T02:35:16.218Z,94.27
2017-03-05T02:36:16.940Z,94.13
2017-03-05T02:37:17.659Z,94.03
2017-03-05T02:38:18.389Z,94.22
2017-03-05T02:39:19.111Z,94.32
2017-03-05T02:40:19.843Z,94.13
2017-03-05T02:41:20.571Z,94.13
2017-03-05T02:42:21.293Z,94.13
2017-03-05T02:43:22.020Z,94.6
2017-03-05T02:44:22.745Z,94.13
2017-03-05T02:45:23.478Z,94.13
2017-03-05T02:46:24.206Z,94.79
2017-03-05T02:47:24.942Z,94.98
2017-03-05T02:48:25.664Z,95.08
2017-03-05T02:49:26.406Z,94.98
2017-03-05T02:50:27.125Z,95.08
2017-03-05T02:51:27.972Z,94.98
2017-03-05T02:52:28.712Z,95.27
2017-03-05T02:53:29.441Z,95.27
2017-03-05T02:54:30.194Z,95.17
2017-03-05T02:55:30.925Z,95.94
2017-03-05T02:56:31.652Z,95.65
2017-03-05T02:57:32.387Z,95.65
2017-03-05T02:58:33.116Z,95.75
2017-03-05T02:59:33.814Z,95.75
2017-03-05T03:00:34.529Z,95.65
2017-03-05T03:01:35.257Z,95.27
2017-03-05T03:02:35.977Z,95.08
2017-03-05T03:03:36.699Z,95.27
2017-03-05T03:04:37.458Z,95.65
2017-03-05T03:05:38.184Z,95.75
2017-03-05T03:06:38.914Z,95.56
2017-03-05T03:07:39.631Z,95.75
2017-03-05T03:08:40.347Z,95.65
2017-03-05T03:09:41.061Z,95.75
2017-03-05T03:10:41.784Z,95.84
2017-03-05T03:11:42.500Z,96.12
2017-03-05T03:12:43.229Z,96.12
2017-03-05T03:13:43.945Z,96.6
2017-03-05T03:14:44.681Z,96.6
2017-03-05T03:15:45.402Z,97.17
2017-03-05T03:16:46.154Z,96.89
2017-03-05T03:17:46.881Z,97.08
2017-03-05T03:18:47.619Z,97.36
2017-03-05T03:19:48.346Z,97.55
2017-03-05T03:20:49.090Z,97.65
2017-03-05T03:21:49.819Z,97.93
2017-03-05T03:22:50.564Z,97.74
2017-03-05T03:23:51.307Z,97.65
2017-03-05T03:24:52.028Z,97.65
2017-03-05T03:25:52.760Z,97.65
2017-03-05T03:26:53.501Z,98.13
2017-03-05T03:27:54.237Z,97.36
2017-03-05T03:28:54.972Z,97.74
2017-03-05T03:29:55.700Z,97.93
2017-03-05T03:30:56.454Z,97.74
2017-03-05T03:31:57.183Z,98.13
2017-03-05T03:32:57.909Z,97.55
2017-03-05T03:33:58.624Z,98.22
2017-03-05T03:34:59.350Z,98.13
2017-03-05T03:36:00.059Z,98.32
2017-03-05T03:37:00.822Z,98.03
2017-03-05T03:38:01.594Z,97.93
2017-03-05T03:39:02.320Z,98.5
2017-03-05T03:40:03.056Z,98.03
2017-03-05T03:41:03.772Z,98.5
2017-03-05T03:42:04.499Z,98.32
2017-03-05T03:43:05.240Z,98.03
2017-03-05T03:44:05.964Z,98.41
2017-03-05T03:45:06.687Z,98.88
2017-03-05T03:46:07.421Z,99.27
2017-03-05T03:47:08.142Z,99.17
2017-03-05T03:48:08.871Z,99.65
2017-03-05T03:49:09.621Z,99.99
2017-03-05T03:50:10.359Z,99.65
2017-03-05T03:51:11.080Z,99.88
2017-03-05T03:52:11.805Z,99.99
2017-03-05T03:53:12.515Z,99.99
2017-03-05T03:54:13.265Z,99.99
2017-03-05T03:55:13.976Z,99.99
2017-03-05T03:56:14.700Z,99.99
2017-03-05T03:57:15.415Z,99.99
2017-03-05T03:58:16.131Z,99.99
2017-03-05T03:59:16.843Z,99.99
2017-03-05T04:00:17.577Z,99.99
2017-03-05T04:01:18.316Z,99.99
2017-03-05T04:02:19.051Z,99.99
2017-03-05T04:03:19.762Z,99.98
2017-03-05T04:04:20.488Z,99.99
2017-03-05T04:05:21.229Z,99.99
2017-03-05T04:06:21.980Z,99.99
2017-03-05T04:07:22.693Z,99.99
2017-03-05T04:08:23.440Z,99.99
2017-03-05T04:09:24.156Z,99.99
2017-03-05T04:10:24.909Z,99.98
2017-03-05T04:11:25.635Z,99.98
2017-03-05T04:12:26.358Z,99.84
2017-03-05T04:13:27.081Z,99.99
2017-03-05T04:14:27.830Z,99.99
2017-03-05T04:15:28.577Z,99.17
2017-03-05T04:16:29.304Z,99.69
2017-03-05T04:17:30.070Z,99.55
2017-03-05T04:18:30.822Z,99.12
2017-03-05T04:19:31.547Z,99.41
2017-03-05T04:20:32.297Z,99.41
2017-03-05T04:21:33.021Z,99.84
2017-03-05T04:22:33.796Z,99.69
2017-03-05T04:23:34.528Z,99.99
2017-03-05T04:24:35.238Z,99.79
2017-03-05T04:25:35.981Z,99.99
2017-03-05T04:26:36.713Z,99.99
2017-03-05T04:27:37.415Z,99.98
2017-03-05T04:28:38.142Z,99.99
2017-03-05T04:29:38.922Z,99.99
2017-03-05T04:30:39.649Z,99.99
2017-03-05T04:31:40.388Z,99.99
2017-03-05T04:32:41.126Z,99.99
2017-03-05T04:33:41.840Z,99.99
2017-03-05T04:34:42.574Z,99.99
2017-03-05T04:35:43.321Z,99.99
2017-03-05T04:36:44.056Z,99.99
2017-03-05T04:37:44.758Z,99.99
2017-03-05T04:38:45.491Z,99.99
2017-03-05T04:39:46.247Z,99.99
2017-03-05T04:40:46.961Z,99.99
2017-03-05T04:41:47.683Z,99.99
2017-03-05T04:42:48.408Z,99.99
2017-03-05T04:43:49.144Z,99.99
2017-03-05T04:44:49.861Z,99.99
2017-03-05T04:45:50.577Z,99.99
2017-03-05T04:46:51.349Z,99.99
2017-03-05T04:47:52.068Z,99.99
2017-03-05T04:48:52.801Z,99.99
2017-03-05T04:49:53.520Z,99.99
2017-03-05T04:50:54.240Z,99.99
2017-03-05T04:51:54.947Z,99.99
2017-03-05T04:52:55.661Z,99.99
2017-03-05T04:53:56.364Z,99.99
2017-03-05T04:54:57.103Z,99.99
2017-03-05T04:55:57.808Z,99.99
2017-03-05T04:56:58.565Z,99.99
2017-03-05T04:57:59.279Z,99.99
2017-03-05T04:59:00.054Z,99.99
2017-03-05T05:00:00.756Z,99.99
2017-03-05T05:01:01.487Z,99.99
2017-03-05T05:02:02.243Z,99.99
2017-03-05T05:03:02.969Z,99.99
2017-03-05T05:04:03.691Z,99.99
2017-03-05T05:05:04.401Z,99.99
2017-03-05T05:06:05.104Z,99.99
2017-03-05T05:07:05.813Z,99.99
2017-03-05T05:08:06.545Z,99.99
2017-03-05T05:09:07.283Z,99.99
2017-03-05T05:10:07.978Z,99.99
2017-03-05T05:11:08.703Z,99.99
2017-03-05T05:12:09.434Z,99.99
2017-03-05T05:13:10.128Z,99.99
2017-03-05T05:14:10.845Z,99.99
2017-03-05T05:15:11.567Z,99.99
2017-03-05T05:16:12.296Z,99.99
2017-03-05T05:17:13.010Z,99.99
2017-03-05T05:18:13.721Z,99.99
2017-03-05T05:19:14.432Z,99.99
2017-03-05T05:20:15.145Z,99.99
2017-03-05T05:21:15.917Z,99.99
2017-03-05T05:22:16.625Z,99.99
2017-03-05T05:23:17.354Z,99.99
2017-03-05T05:24:18.189Z,99.99
2017-03-05T05:25:18.895Z,99.99
2017-03-05T05:26:19.618Z,99.99
2017-03-05T05:27:20.326Z,99.99
2017-03-05T05:28:21.047Z,99.99
2017-03-05T05:29:21.761Z,99.99
2017-03-05T05:30:22.464Z,99.99
2017-03-05T05:31:23.178Z,99.99
2017-03-05T05:32:24.032Z,99.99
2017-03-05T05:33:24.746Z,99.99
2017-03-05T05:34:25.450Z,99.99
2017-03-05T05:35:26.181Z,99.99
2017-03-05T05:36:26.885Z,99.99
2017-03-05T05:37:27.597Z,99.99
2017-03-05T05:38:28.315Z,99.99
2017-03-05T05:39:29.030Z,99.99
2017-03-05T05:40:29.766Z,99.99
2017-03-05T05:41:30.503Z,99.99
2017-03-05T05:42:31.221Z,99.99
2017-03-05T05:43:31.954Z,99.99
2017-03-05T05:44:32.660Z,99.99
2017-03-05T05:45:33.380Z,99.99
2017-03-05T05:46:34.093Z,99.99
2017-03-05T05:47:34.815Z,99.99
2017-03-05T05:48:35.530Z,99.99
2017-03-05T05:49:36.246Z,99.99
2017-03-05T05:50:36.975Z,99.99
2017-03-05T05:51:37.721Z,99.99
2017-03-05T05:52:38.433Z,99.99
2017-03-05T05:53:39.159Z,99.99
2017-03-05T05:54:39.880Z,99.99
2017-03-05T05:55:40.598Z,99.99
2017-03-05T05:56:41.322Z,99.99
2017-03-05T05:57:42.055Z,99.99
2017-03-05T05:58:42.784Z,99.99
2017-03-05T05:59:43.495Z,99.99
2017-03-05T06:00:44.210Z,99.99
2017-03-05T06:01:44.934Z,99.99
2017-03-05T06:02:45.632Z,99.99
2017-03-05T06:03:46.360Z,99.99
2017-03-05T06:04:47.085Z,99.99
2017-03-05T06:05:47.835Z,99.99
2017-03-05T06:06:48.546Z,99.99
2017-03-05T06:07:49.311Z,99.99
2017-03-05T06:08:50.028Z,99.99
2017-03-05T06:09:50.768Z,99.99
2017-03-05T06:10:51.483Z,99.99
2017-03-05T06:11:52.215Z,99.99
2017-03-05T06:12:52.920Z,99.99
2017-03-05T06:13:53.645Z,99.99
2017-03-05T06:14:54.384Z,99.99
2017-03-05T06:15:55.112Z,99.99
2017-03-05T06:16:55.834Z,99.99
2017-03-05T06:17:56.554Z,99.99
2017-03-05T06:18:57.304Z,99.99
2017-03-05T06:19:58.045Z,99.69
2017-03-05T06:20:58.760Z,99.4
2017-03-05T06:21:59.497Z,99.99
2017-03-05T06:23:00.225Z,99.69
2017-03-05T06:24:00.952Z,99.88
2017-03-05T06:25:01.698Z,99.69
2017-03-05T06:26:02.416Z,99.99
2017-03-05T06:27:03.154Z,99.78
2017-03-05T06:28:03.931Z,99.59
2017-03-05T06:29:04.654Z,99.99
2017-03-05T06:30:05.390Z,99.99
2017-03-05T06:31:06.115Z,99.4
2017-03-05T06:32:06.815Z,99.97
2017-03-05T06:33:07.535Z,99.97
2017-03-05T06:34:08.279Z,99.99
2017-03-05T06:35:09.011Z,99.97
2017-03-05T06:36:09.754Z,99.99
2017-03-05T06:37:10.480Z,99.4
2017-03-05T06:38:11.198Z,99.02
2017-03-05T06:39:11.926Z,99.02
2017-03-05T06:40:12.655Z,98.64
2017-03-05T06:41:13.375Z,98.93
2017-03-05T06:42:14.098Z,98.36
2017-03-05T06:43:14.837Z,98.36
2017-03-05T06:44:15.567Z,98.55
2017-03-05T06:45:16.322Z,97.97
2017-03-05T06:46:17.040Z,97.97
2017-03-05T06:47:17.779Z,97.88
2017-03-05T06:48:18.516Z,97.17
2017-03-05T06:49:19.231Z,96.84
2017-03-05T06:50:19.972Z,96.74
2017-03-05T06:51:20.730Z,96.45
2017-03-05T06:52:21.462Z,96.5
2017-03-05T06:53:22.184Z,95.84
2017-03-05T06:54:22.891Z,95.65
2017-03-05T06:55:23.629Z,94.46
2017-03-05T06:56:24.378Z,95.22
2017-03-05T06:57:25.075Z,95.32
2017-03-05T06:58:25.825Z,95.22
2017-03-05T06:59:26.577Z,95.03
2017-03-05T07:00:27.294Z,94.93
2017-03-05T07:01:28.005Z,94.98
2017-03-05T07:02:28.728Z,94.08
2017-03-05T07:03:29.502Z,94.56
2017-03-05T07:04:30.205Z,94.32
2017-03-05T07:05:30.931Z,94.22
2017-03-05T07:06:32.588Z,94.32
2017-03-05T07:07:34.380Z,93.32
2017-03-05T07:08:35.104Z,93.37
2017-03-05T07:09:36.160Z,93.46
2017-03-05T07:10:36.866Z,93.46
2017-03-05T07:11:37.614Z,94.08
2017-03-05T07:12:38.387Z,94.32
2017-03-05T07:13:39.124Z,92.89
2017-03-05T07:14:39.834Z,92.85
2017-03-05T07:15:40.572Z,92.66
2017-03-05T07:16:41.313Z,92.75
2017-03-05T07:17:42.027Z,92.13
2017-03-05T07:18:42.741Z,92.51
2017-03-05T07:19:43.485Z,92.89
2017-03-05T07:20:44.225Z,92.46
2017-03-05T07:21:44.951Z,92.61
2017-03-05T07:22:45.668Z,92.89
2017-03-05T07:23:46.407Z,93.6
2017-03-05T07:24:47.137Z,92.41
2017-03-05T07:25:47.864Z,91.94
2017-03-05T07:26:48.609Z,92.03
2017-03-05T07:27:49.334Z,92.32
2017-03-05T07:28:50.138Z,92.32
2017-03-05T07:29:50.864Z,91.71
2017-03-05T07:30:51.604Z,92.27
2017-03-05T07:31:52.328Z,92.18
2017-03-05T07:32:53.064Z,92.18
2017-03-05T07:33:53.778Z,91.99
2017-03-05T07:34:54.534Z,92.22
2017-03-05T07:35:55.323Z,91.94
2017-03-05T07:36:56.069Z,91.61
2017-03-05T07:37:56.791Z,91.66
2017-03-05T07:38:57.523Z,91.71
2017-03-05T07:39:58.272Z,91.33
2017-03-05T07:40:59.002Z,91.33
2017-03-05T07:41:59.747Z,91.42
2017-03-05T07:43:00.480Z,91.42
2017-03-05T07:44:01.190Z,91.71
2017-03-05T07:45:01.910Z,90.75
2017-03-05T07:46:02.642Z,91.33
2017-03-05T07:47:03.367Z,91.71
2017-03-05T07:48:04.126Z,91.33
2017-03-05T07:49:04.847Z,91.42
2017-03-05T07:50:05.614Z,91.61
2017-03-05T07:51:06.338Z,91.71
2017-03-05T07:52:07.078Z,91.61
2017-03-05T07:53:07.816Z,91.85
2017-03-05T07:54:08.573Z,92.46
2017-03-05T07:55:09.345Z,91.56
2017-03-05T07:56:10.087Z,91.75
2017-03-05T07:57:10.804Z,92.32
2017-03-05T07:58:11.518Z,92.32
2017-03-05T07:59:12.284Z,90.89
2017-03-05T08:00:13.012Z,90.89
2017-03-05T08:01:13.761Z,90.75
2017-03-05T08:02:14.508Z,91.47
2017-03-05T08:03:15.238Z,90.99
2017-03-05T08:04:15.984Z,91.08
2017-03-05T08:05:16.733Z,91.47
2017-03-05T08:06:17.451Z,91.47
2017-03-05T08:07:18.207Z,91.66
2017-03-05T08:08:18.935Z,91.61
2017-03-05T08:09:19.680Z,91.56
2017-03-05T08:10:20.428Z,92.13
2017-03-05T08:11:21.167Z,91.66
2017-03-05T08:12:21.902Z,92.41
2017-03-05T08:13:22.622Z,91.85
2017-03-05T08:14:23.350Z,92.32
2017-03-05T08:15:24.071Z,91.85
2017-03-05T08:16:24.803Z,91.66
2017-03-05T08:17:25.532Z,92.32
2017-03-05T08:18:26.253Z,91.47
2017-03-05T08:19:27.066Z,91.28
2017-03-05T08:20:27.821Z,90.99
2017-03-05T08:21:28.547Z,91.56
2017-03-05T08:22:29.302Z,91.66
2017-03-05T08:23:30.028Z,91.47
2017-03-05T08:24:30.764Z,91.37
2017-03-05T08:25:31.547Z,91.47
2017-03-05T08:26:32.297Z,91.47
2017-03-05T08:27:33.025Z,91.47
2017-03-05T08:28:33.747Z,92.32
2017-03-05T08:29:34.473Z,91.85
2017-03-05T08:30:35.266Z,92.41
2017-03-05T08:31:36.011Z,91.28
2017-03-05T08:32:36.759Z,91.75
2017-03-05T08:33:37.512Z,90.99
2017-03-05T08:34:38.230Z,91.03
2017-03-05T08:35:38.958Z,91.03
2017-03-05T08:36:39.708Z,90.94
2017-03-05T08:37:40.441Z,90.18
2017-03-05T08:38:41.179Z,90.84
2017-03-05T08:39:41.913Z,90.8
2017-03-05T08:40:42.747Z,90.7
2017-03-05T08:41:43.505Z,90.7
2017-03-05T08:42:44.237Z,90.8
2017-03-05T08:43:44.962Z,90.89
2017-03-05T08:44:45.697Z,90.89
2017-03-05T08:45:46.436Z,90.7
2017-03-05T08:46:47.156Z,90.84
2017-03-05T08:47:47.890Z,91.51
2017-03-05T08:48:48.615Z,90.66
2017-03-05T08:49:49.362Z,91.42
2017-03-05T08:50:50.112Z,90.61
2017-03-05T08:51:50.843Z,91.03
2017-03-05T08:52:51.581Z,91.08
2017-03-05T08:53:52.310Z,90.61
2017-03-05T08:54:53.054Z,91.56
2017-03-05T08:55:53.777Z,91.66
2017-03-05T08:56:54.496Z,91.37
2017-03-05T08:57:55.249Z,90.7
2017-03-05T08:58:55.980Z,90.99
2017-03-05T08:59:56.723Z,91.47
2017-03-05T09:00:57.469Z,90.99
2017-03-05T09:01:58.206Z,91.03
2017-03-05T09:02:58.969Z,91.37
2017-03-05T09:03:59.696Z,90.84
2017-03-05T09:05:00.475Z,90.84
2017-03-05T09:06:01.222Z,90.61
2017-03-05T09:07:01.958Z,90.8
2017-03-05T09:08:02.695Z,90.75
2017-03-05T09:09:03.440Z,91.03
2017-03-05T09:10:04.162Z,91.13
2017-03-05T09:11:04.887Z,90.75
2017-03-05T09:12:05.621Z,90.56
2017-03-05T09:13:06.385Z,91.03
2017-03-05T09:14:07.178Z,91.13
2017-03-05T09:15:07.955Z,91.13
2017-03-05T09:16:08.730Z,91.22
2017-03-05T09:17:09.472Z,90.84
2017-03-05T09:18:10.183Z,91.51
2017-03-05T09:19:10.915Z,91.7
2017-03-05T09:20:11.693Z,91.03
2017-03-05T09:21:12.465Z,90.75
2017-03-05T09:22:13.183Z,91.51
2017-03-05T09:23:13.905Z,90.75
2017-03-05T09:24:14.611Z,90.56
2017-03-05T09:25:15.317Z,90.08
2017-03-05T09:26:16.066Z,90.66
2017-03-05T09:27:16.830Z,90.66
2017-03-05T09:28:17.556Z,90.75
2017-03-05T09:29:18.429Z,90.28
2017-03-05T09:30:19.206Z,90.28
2017-03-05T09:31:19.958Z,90.94
2017-03-05T09:32:20.712Z,90.66
2017-03-05T09:33:21.451Z,90.94
2017-03-05T09:34:22.189Z,90.66
2017-03-05T09:35:22.932Z,90.84
2017-03-05T09:36:23.675Z,90.66
2017-03-05T09:37:24.395Z,90.37
2017-03-05T09:38:25.442Z,89.99
2017-03-05T09:39:26.186Z,90.28
2017-03-05T09:40:26.958Z,89.99
2017-03-05T09:41:27.700Z,90.08
2017-03-05T09:42:28.447Z,90.47
2017-03-05T09:43:29.185Z,90.28
2017-03-05T09:44:29.921Z,90.08
2017-03-05T09:45:30.657Z,90.08
2017-03-05T09:46:31.441Z,89.32
2017-03-05T09:47:32.744Z,90.03
2017-03-05T09:48:33.456Z,89.47
2017-03-05T09:49:34.414Z,89.56
2017-03-05T09:50:36.136Z,89.51
2017-03-05T09:51:36.904Z,89.56
2017-03-05T09:52:37.657Z,89.37
2017-03-05T09:53:38.449Z,89.27
2017-03-05T09:54:39.474Z,88.32
2017-03-05T09:55:40.223Z,88.13
2017-03-05T09:56:40.986Z,87.85
2017-03-05T09:57:41.714Z,88.23
2017-03-05T09:58:42.502Z,88.51
2017-03-05T09:59:43.249Z,88.23
2017-03-05T10:00:43.987Z,88.6
2017-03-05T10:01:44.732Z,88.04
2017-03-05T10:02:45.480Z,88.04
2017-03-05T10:03:47.583Z,88.04
2017-03-05T10:04:48.377Z,87.18
2017-03-05T10:05:49.178Z,87.27
2017-03-05T10:06:49.905Z,86.99
2017-03-05T10:07:50.631Z,87.18
2017-03-05T10:08:51.358Z,86.61
2017-03-05T10:09:52.169Z,86.18
2017-03-05T10:10:52.900Z,86.27
2017-03-05T10:11:53.629Z,85.7
2017-03-05T10:12:54.378Z,84.75
2017-03-05T10:13:55.115Z,84.27
2017-03-05T10:14:55.849Z,84.17
2017-03-05T10:15:56.622Z,84.46
2017-03-05T10:16:57.355Z,84.46
2017-03-05T10:17:58.095Z,84.17
2017-03-05T10:18:58.838Z,84.08
2017-03-05T10:19:59.567Z,83.84
2017-03-05T10:21:00.308Z,83.41
2017-03-05T10:22:01.037Z,83.98
2017-03-05T10:23:01.804Z,83.84
2017-03-05T10:24:02.636Z,84.03
2017-03-05T10:25:03.417Z,82.6
2017-03-05T10:26:04.241Z,82.5
2017-03-05T10:27:04.993Z,83.17
2017-03-05T10:28:05.772Z,83.17
2017-03-05T10:29:06.564Z,83.13
2017-03-05T10:30:07.443Z,83.51
2017-03-05T10:31:08.255Z,83.7
2017-03-05T10:32:09.033Z,83.03
2017-03-05T10:33:09.804Z,83.61
2017-03-05T10:34:10.543Z,84.17
2017-03-05T10:35:11.311Z,84.65
2017-03-05T10:36:12.061Z,85.32
2017-03-05T10:37:12.871Z,85.7
2017-03-05T10:38:13.919Z,85.32
2017-03-05T10:39:14.699Z,85.28
2017-03-05T10:40:15.519Z,86.18
2017-03-05T10:41:16.281Z,86.18
2017-03-05T10:42:17.060Z,85.41
2017-03-05T10:43:17.814Z,85.51
2017-03-05T10:44:18.555Z,85.13
2017-03-05T10:45:19.362Z,85.13
2017-03-05T10:46:20.182Z,85.51
2017-03-05T10:47:20.949Z,84.65
2017-03-05T10:48:21.742Z,84.36
2017-03-05T10:49:22.505Z,84.46
2017-03-05T10:50:23.250Z,84.46
2017-03-05T10:51:24.000Z,84.56
2017-03-05T10:52:24.733Z,83.41
2017-03-05T10:53:25.468Z,83.51
2017-03-05T10:54:26.219Z,83.22
2017-03-05T10:55:26.947Z,83.7
2017-03-05T10:56:27.716Z,82.89
2017-03-05T10:57:28.444Z,82.69
2017-03-05T10:58:29.579Z,83.55
2017-03-05T10:59:30.519Z,83.89
2017-03-05T11:00:31.254Z,83.45
2017-03-05T11:01:32.005Z,82.69
2017-03-05T11:02:32.733Z,82.12
2017-03-05T11:03:33.471Z,81.84
2017-03-05T11:04:34.196Z,81.46
2017-03-05T11:05:34.947Z,81.84
2017-03-05T11:06:36.310Z,81.55
2017-03-05T11:07:37.055Z,82.03
2017-03-05T11:08:37.790Z,81.46
2017-03-05T11:09:38.527Z,81.46
2017-03-05T11:10:39.257Z,81.46
2017-03-05T11:11:40.009Z,81.36
2017-03-05T11:12:40.755Z,81.65
2017-03-05T11:13:41.486Z,81.55
2017-03-05T11:14:42.231Z,81.36
2017-03-05T11:15:42.998Z,80.41
2017-03-05T11:16:43.764Z,79.83
2017-03-05T11:17:44.527Z,80.79
2017-03-05T11:18:45.255Z,79.83
2017-03-05T11:19:46.001Z,80.22
2017-03-05T11:20:46.755Z,79.74
2017-03-05T11:21:47.483Z,80.6
2017-03-05T11:22:48.223Z,79.93
2017-03-05T11:23:48.951Z,80.22
2017-03-05T11:24:49.707Z,79.36
2017-03-05T11:25:50.456Z,79.07
2017-03-05T11:26:51.193Z,79.55
2017-03-05T11:27:51.923Z,78.16
2017-03-05T11:28:52.666Z,78.25
2017-03-05T11:29:53.396Z,78.16
2017-03-05T11:30:54.126Z,77.59
2017-03-05T11:31:54.866Z,77.2
2017-03-05T11:32:55.617Z,76.98
2017-03-05T11:33:56.492Z,76.69
2017-03-05T11:34:57.279Z,76.88
2017-03-05T11:35:58.017Z,76.03
2017-03-05T11:36:58.755Z,76.21
2017-03-05T11:37:59.496Z,75.68
2017-03-05T11:39:00.239Z,75.55
2017-03-05T11:40:00.963Z,75.16
2017-03-05T11:41:01.734Z,75.26
2017-03-05T11:42:02.483Z,75.16
2017-03-05T11:43:03.229Z,75.74
2017-03-05T11:44:03.979Z,75.26
2017-03-05T11:45:04.727Z,75.36
2017-03-05T11:46:05.474Z,75.84
2017-03-05T11:47:06.217Z,75.26
2017-03-05T11:48:06.989Z,75.84
2017-03-05T11:49:07.764Z,75.93
2017-03-05T11:50:08.499Z,76.21
2017-03-05T11:51:09.260Z,76.31
2017-03-05T11:52:09.992Z,75.84
2017-03-05T11:53:10.735Z,76.4
2017-03-05T11:54:11.456Z,76.03
2017-03-05T11:55:12.252Z,76.5
2017-03-05T11:56:12.982Z,76.21
2017-03-05T11:57:13.737Z,75.36
2017-03-05T11:58:14.492Z,75.59
2017-03-05T11:59:15.224Z,75.96
2017-03-05T12:00:15.978Z,75.68
2017-03-05T12:01:16.730Z,75.78
2017-03-05T12:02:17.480Z,75.55
2017-03-05T12:03:18.216Z,75.84
2017-03-05T12:04:18.967Z,75.26
2017-03-05T12:05:19.737Z,75.64
2017-03-05T12:06:20.484Z,75.74
2017-03-05T12:07:21.225Z,75.07
2017-03-05T12:08:21.956Z,74.88
2017-03-05T12:09:22.702Z,75.07
2017-03-05T12:10:23.447Z,75.16
2017-03-05T12:11:24.183Z,75.16
2017-03-05T12:12:24.909Z,74.88
2017-03-05T12:13:25.674Z,74.79
2017-03-05T12:14:26.417Z,74.88
2017-03-05T12:15:27.163Z,74.79
2017-03-05T12:16:27.926Z,74.88
2017-03-05T12:17:28.672Z,74.4
2017-03-05T12:18:29.430Z,73.17
2017-03-05T12:19:30.168Z,73.45
2017-03-05T12:20:30.964Z,73.45
2017-03-05T12:21:31.780Z,72.12
2017-03-05T12:22:32.613Z,71.64
2017-03-05T12:23:33.418Z,71.36
2017-03-05T12:24:34.154Z,71.07
2017-03-05T12:25:34.921Z,71.45
2017-03-05T12:26:35.676Z,71.93
2017-03-05T12:27:36.426Z,72.02
2017-03-05T12:28:37.173Z,71.83
2017-03-05T12:29:37.900Z,72.5
2017-03-05T12:30:38.653Z,72.41
2017-03-05T12:31:39.404Z,71.73
2017-03-05T12:32:40.174Z,72.02
2017-03-05T12:33:40.933Z,71.07
2017-03-05T12:34:41.668Z,71.36
2017-03-05T12:35:42.416Z,72.02
2017-03-05T12:36:43.159Z,71.26
2017-03-05T12:37:43.901Z,71.83
2017-03-05T12:38:44.645Z,71.45
2017-03-05T12:39:45.407Z,71.73
2017-03-05T12:40:46.139Z,71.83
2017-03-05T12:41:46.900Z,71.93
2017-03-05T12:42:47.636Z,72.02
2017-03-05T12:43:48.368Z,71.11
2017-03-05T12:44:49.119Z,71.07
2017-03-05T12:45:49.975Z,70.82
2017-03-05T12:46:50.724Z,70.78
2017-03-05T12:47:51.462Z,70.88
2017-03-05T12:48:52.304Z,70.78
2017-03-05T12:49:53.233Z,71.83
2017-03-05T12:50:53.981Z,71.93
2017-03-05T12:51:54.724Z,71.83
2017-03-05T12:52:55.455Z,71.83
2017-03-05T12:53:56.222Z,71.83
2017-03-05T12:54:56.968Z,71.73
2017-03-05T12:55:57.755Z,72.12
2017-03-05T12:56:58.491Z,72.12
2017-03-05T12:57:59.245Z,72.41
2017-03-05T12:59:00.042Z,71.93
2017-03-05T13:00:00.844Z,72.41
2017-03-05T13:01:01.652Z,72.78
2017-03-05T13:02:02.448Z,72.78
2017-03-05T13:03:03.186Z,73.07
2017-03-05T13:04:03.934Z,73.26